Cap Romuald — SVGN — position and weather

sailwx.info

Track history (hours):
 
Tides and Currents Weather Stations Pressure Air Temp Water Temp Dewpoint Dewpoint Depression Visibility Wind Speed Wind Dir Waves Ship Positions

Cap Romuald

Last reported at 2017-Sep-21 19:26 UTC. Time now 2017-Sep-24 06:45 UTC.
Position N 25°26' W 079°38'.

Length 274 m; draft 9.3 m.

Type: Tanker. MMSI: 239574000.

Date/timePositionNaut miles runAvg speedWind from/ knotsBaromVisibWave heightAir tempDewpointWater temp
2017-Sep-21 19:26N 25°26' W 079°38'512.6
2017-Sep-21 19:00N 25°31' W 079°37'713.0
2017-Sep-21 18:30N 25°37' W 079°36'713.2
2017-Sep-21 18:00N 25°44' W 079°35'713.2
2017-Sep-21 17:30N 25°51' W 079°34'713.3
2017-Sep-21 17:00N 25°57' W 079°33'713.4
2017-Sep-21 16:30N 26°04' W 079°32'713.4
2017-Sep-21 16:00N 26°10' W 079°31'713.3
2017-Sep-21 15:30N 26°17' W 079°30'1313.0
2017-Sep-21 14:32N 26°29' W 079°28'012.9
2017-Sep-21 14:30N 26°30' W 079°28'  
Track history (hours):
 
Tides and Currents Weather Stations Pressure Air Temp Water Temp Dewpoint Dewpoint Depression Visibility Wind Speed Wind Dir Waves Ship Positions

Cap Romuald

Last reported at 2017-Sep-21 19:26 UTC. Time now 2017-Sep-24 06:45 UTC.
Position N 25°26' W 079°38'.

Length 274 m; draft 9.3 m.

Type: Tanker. MMSI: 239574000.

Date/timePositionNaut miles runAvg speedWind from/ knotsBaromVisibWave heightAir tempDewpointWater temp
2017-Sep-21 19:26N 25°26' W 079°38'512.6
2017-Sep-21 19:00N 25°31' W 079°37'713.0
2017-Sep-21 18:30N 25°37' W 079°36'713.2
2017-Sep-21 18:00N 25°44' W 079°35'713.2
2017-Sep-21 17:30N 25°51' W 079°34'713.3
2017-Sep-21 17:00N 25°57' W 079°33'713.4
2017-Sep-21 16:30N 26°04' W 079°32'713.4
2017-Sep-21 16:00N 26°10' W 079°31'713.3
2017-Sep-21 15:30N 26°17' W 079°30'1313.0
2017-Sep-21 14:32N 26°29' W 079°28'012.9
2017-Sep-21 14:30N 26°30' W 079°28'  

Dump ship's entire track history